Lake Peekskill, New York
Current Conditions -  °F | °C
As of 2:45 PM on Monday 26 Jan 2015 (Local Time) from KSWF Reporting Station
Light Snow Light Snow  
Wind Chill:   Ceiling: 1500
Heat Index: 18°   Visibility: 1.5mi
Dew Point: 14°   Wind: 14mph
Humidity: 86%   Direction: 50°NE
Pressure: 29.92"   Gusts: NA
Location:  41.33°N, 73.88°W
Report Text: KSWF 261945Z 05012KT 1 1/2SM -SN BR OVC015 M08/M10 A2992
Loading
Personal Weather Stations






























Interactive Weather Map New forecast layout! Learn more

10-Day Weather Forecast

Advertisements
Track Severe Weather on mobile